Time;durP1;ratioP1;P1;durP2;ratioP2;P2;SDS_P1;SDS_P2;PMS_P1;PMS_P2;Temp;Humidity;BMP_temperature;BMP_pressure;BME280_temperature;BME280_humidity;BME280_pressure;Samples;Min_cycle;Max_cycle;Signal;HPM_P1;HPM_P2
2023/10/11 00:01:18;;;;;;;;;;;23.60;81.20;;;;;;5105277;27;43529;-78
2023/10/11 00:03:52;;;;;;;;;;;23.30;81.10;;;;;;5105871;27;43105;-78
2023/10/11 00:06:17;;;;;;;;;;;23.50;80.80;;;;;;5106279;27;44018;-79
2023/10/11 00:08:43;;;;;;;;;;;23.20;80.70;;;;;;5105102;27;42930;-78
2023/10/11 00:11:09;;;;;;;;;;;23.20;81.30;;;;;;5104769;27;43868;-78
2023/10/11 00:13:35;;;;;;;;;;;23.30;81.80;;;;;;5106050;27;43199;-79
2023/10/11 00:16:08;;;;;;;;;;;23.30;81.90;;;;;;5105898;27;43385;-78
2023/10/11 00:18:35;;;;;;;;;;;23.30;79.30;;;;;;5105936;27;42782;-79
2023/10/11 00:21:09;;;;;;;;;;;23.50;81.60;;;;;;5106177;27;42897;-78
2023/10/11 00:23:36;;;;;;;;;;;23.50;81.40;;;;;;5104360;27;42906;-78
2023/10/11 00:26:02;;;;;;;;;;;23.60;81.60;;;;;;5105802;27;43610;-76
2023/10/11 00:28:31;;;;;;;;;;;23.40;80.80;;;;;;5105401;27;42926;-79
2023/10/11 00:30:59;;;;;;;;;;;23.30;81.00;;;;;;5105167;27;43589;-78
2023/10/11 00:33:26;;;;;;;;;;;23.40;80.40;;;;;;5086737;27;42775;-79
2023/10/11 00:35:52;;;;;;;;;;;23.40;81.00;;;;;;5105784;27;44013;-78
2023/10/11 00:38:20;;;;;;;;;;;23.30;81.20;;;;;;5105714;27;42955;-79
2023/10/11 00:41:00;;;;;;;;;;;23.40;81.00;;;;;;5105770;27;42906;-78
2023/10/11 00:43:36;;;;;;;;;;;23.50;78.70;;;;;;5104335;27;43016;-78
2023/10/11 00:46:02;;;;;;;;;;;23.40;78.30;;;;;;5105620;27;43798;-78
2023/10/11 00:48:30;;;;;;;;;;;23.50;80.20;;;;;;5106295;27;42964;-78
2023/10/11 00:50:56;;;;;;;;;;;23.40;80.40;;;;;;5104358;27;43522;-79
2023/10/11 00:53:23;;;;;;;;;;;23.30;80.40;;;;;;5105459;27;42754;-79
2023/10/11 00:55:49;;;;;;;;;;;23.60;80.80;;;;;;5106983;27;42997;-79
2023/10/11 00:58:15;;;;;;;;;;;23.30;80.60;;;;;;5108909;27;43056;-78
2023/10/11 01:00:42;;;;;;;;;;;23.30;79.90;;;;;;5108291;27;42907;-78
2023/10/11 01:03:08;;;;;;;;;;;23.40;80.40;;;;;;5106552;27;44603;-79
2023/10/11 01:05:43;;;;;;;;;;;23.30;80.30;;;;;;5109096;27;42907;-78
2023/10/11 01:08:10;;;;;;;;;;;23.20;80.00;;;;;;5108844;27;42971;-79
2023/10/11 01:10:36;;;;;;;;;;;23.30;79.70;;;;;;5108998;27;43548;-78
2023/10/11 01:13:02;;;;;;;;;;;22.90;79.80;;;;;;5109208;27;42839;-78
2023/10/11 01:15:28;;;;;;;;;;;23.10;79.50;;;;;;5107643;27;43048;-78
2023/10/11 01:17:54;;;;;;;;;;;23.10;80.10;;;;;;5109066;27;42990;-79
2023/10/11 01:20:19;;;;;;;;;;;23.10;80.10;;;;;;5108258;27;43261;-78
2023/10/11 01:22:45;;;;;;;;;;;23.00;80.20;;;;;;5090753;27;42873;-78
2023/10/11 01:25:12;;;;;;;;;;;23.00;80.10;;;;;;5108458;27;42993;-78
2023/10/11 01:27:38;;;;;;;;;;;23.00;80.00;;;;;;5108115;27;42904;-79
2023/10/11 01:30:07;;;;;;;;;;;22.70;79.60;;;;;;5108151;27;42973;-78
2023/10/11 01:32:34;;;;;;;;;;;23.20;78.80;;;;;;5108261;27;42846;-78
2023/10/11 01:35:01;;;;;;;;;;;23.00;79.40;;;;;;5107902;27;43486;-79
2023/10/11 01:37:26;;;;;;;;;;;23.00;79.30;;;;;;5107107;27;43160;-78
2023/10/11 01:39:52;;;;;;;;;;;23.00;79.80;;;;;;5108183;27;42799;-76
2023/10/11 01:42:17;;;;;;;;;;;23.00;79.20;;;;;;5090173;27;42872;-79
2023/10/11 01:44:43;;;;;;;;;;;23.10;79.20;;;;;;5107530;27;43390;-78
2023/10/11 01:47:09;;;;;;;;;;;23.30;79.60;;;;;;5108667;27;42999;-78
2023/10/11 01:49:39;;;;;;;;;;;23.00;79.20;;;;;;5107969;27;43422;-78
2023/10/11 01:52:06;;;;;;;;;;;22.90;79.10;;;;;;5107988;27;43066;-78
2023/10/11 01:54:34;;;;;;;;;;;23.00;79.40;;;;;;5106982;27;43707;-79
2023/10/11 01:57:01;;;;;;;;;;;22.90;78.70;;;;;;5088487;27;42963;-78
2023/10/11 01:59:27;;;;;;;;;;;23.00;79.40;;;;;;5107398;27;43623;-78
2023/10/11 02:02:01;;;;;;;;;;;22.90;79.10;;;;;;5108173;27;42860;-77
2023/10/11 02:04:29;;;;;;;;;;;23.00;77.50;;;;;;5108304;27;43390;-79
2023/10/11 02:06:54;;;;;;;;;;;23.00;78.60;;;;;;5106051;27;42855;-78
2023/10/11 02:09:21;;;;;;;;;;;22.90;78.70;;;;;;5108363;27;42949;-78
2023/10/11 02:11:51;;;;;;;;;;;22.20;77.90;;;;;;5100136;27;43010;-78
2023/10/11 02:14:21;;;;;;;;;;;23.00;78.90;;;;;;5106520;27;43449;-78
2023/10/11 02:16:46;;;;;;;;;;;22.70;76.20;;;;;;5107355;27;43041;-78
2023/10/11 02:19:15;;;;;;;;;;;22.90;78.10;;;;;;5107290;27;43883;-78
2023/10/11 02:21:44;;;;;;;;;;;23.10;78.80;;;;;;5099380;27;43013;-79
2023/10/11 02:24:15;;;;;;;;;;;22.90;77.80;;;;;;5086085;28;44012;-79
2023/10/11 02:26:41;;;;;;;;;;;22.80;76.00;;;;;;5090007;28;42983;-79
2023/10/11 02:29:15;;;;;;;;;;;23.10;78.50;;;;;;5103048;28;43521;-79
2023/10/11 02:31:40;;;;;;;;;;;22.80;77.60;;;;;;5100195;28;42973;-78
2023/10/11 02:34:15;;;;;;;;;;;22.90;77.70;;;;;;5093485;28;42912;-79
2023/10/11 02:36:42;;;;;;;;;;;22.80;76.40;;;;;;5087913;28;43005;-79
2023/10/11 02:39:17;;;;;;;;;;;22.60;77.50;;;;;;5086370;28;42982;-79
2023/10/11 02:41:45;;;;;;;;;;;23.00;77.70;;;;;;5067763;28;43086;-80
2023/10/11 02:44:11;;;;;;;;;;;22.80;77.40;;;;;;5086124;28;43750;-78
2023/10/11 02:46:37;;;;;;;;;;;22.90;76.60;;;;;;5087246;28;42966;-78
2023/10/11 02:49:18;;;;;;;;;;;22.70;76.40;;;;;;5093588;27;42867;-77
2023/10/11 02:51:55;;;;;;;;;;;22.60;75.20;;;;;;5105941;27;42942;-78
2023/10/11 02:54:21;;;;;;;;;;;22.70;74.30;;;;;;5106319;27;43582;-79
2023/10/11 02:56:47;;;;;;;;;;;22.90;76.80;;;;;;5106814;27;42989;-78
2023/10/11 02:59:19;;;;;;;;;;;22.80;76.00;;;;;;5107150;27;44150;-78
2023/10/11 03:01:46;;;;;;;;;;;22.50;73.70;;;;;;5107085;27;42903;-79
2023/10/11 03:04:15;;;;;;;;;;;22.70;75.50;;;;;;5106442;27;43677;-79
2023/10/11 03:06:47;;;;;;;;;;;22.70;75.70;;;;;;5105936;27;42912;-79
2023/10/11 03:09:12;;;;;;;;;;;22.70;75.60;;;;;;5105648;27;43559;-79
2023/10/11 03:11:45;;;;;;;;;;;22.70;75.90;;;;;;5106795;27;42938;-78
2023/10/11 03:14:13;;;;;;;;;;;22.80;75.70;;;;;;5106568;27;43456;-79
2023/10/11 03:16:42;;;;;;;;;;;22.70;73.30;;;;;;5103455;27;42977;-79
2023/10/11 03:19:10;;;;;;;;;;;22.70;75.30;;;;;;5103142;27;43063;-80
2023/10/11 03:21:35;;;;;;;;;;;22.60;75.70;;;;;;5106364;27;42985;-78
2023/10/11 03:24:04;;;;;;;;;;;22.70;75.10;;;;;;5103698;27;43249;-78
2023/10/11 03:28:58;;;;;;;;;;;23.00;75.50;;;;;;5105126;27;42855;-79
2023/10/11 03:31:24;;;;;;;;;;;22.70;75.10;;;;;;5106684;27;42923;-78
2023/10/11 03:33:49;;;;;;;;;;;22.70;75.10;;;;;;5106602;27;42925;-78
2023/10/11 03:36:19;;;;;;;;;;;22.70;75.30;;;;;;5104840;27;42977;-78
2023/10/11 03:38:54;;;;;;;;;;;22.50;73.10;;;;;;5102743;27;44538;-79
2023/10/11 03:41:28;;;;;;;;;;;22.60;72.90;;;;;;5106394;27;42895;-79
2023/10/11 03:43:54;;;;;;;;;;;22.60;72.40;;;;;;5105782;27;44002;-79
2023/10/11 03:46:25;;;;;;;;;;;22.60;74.10;;;;;;5087791;27;42886;-79
2023/10/11 03:49:02;;;;;;;;;;;22.70;72.20;;;;;;5105474;27;43952;-79
2023/10/11 03:51:28;;;;;;;;;;;22.60;74.20;;;;;;5104287;27;42943;-79
2023/10/11 03:53:53;;;;;;;;;;;22.60;74.40;;;;;;5105058;27;43705;-79
2023/10/11 03:56:19;;;;;;;;;;;22.50;74.50;;;;;;5105760;27;42878;-78
2023/10/11 03:58:45;;;;;;;;;;;22.50;74.30;;;;;;5105154;27;43638;-77
2023/10/11 04:01:12;;;;;;;;;;;22.90;74.70;;;;;;5106031;27;43059;-78
2023/10/11 04:03:41;;;;;;;;;;;22.50;74.20;;;;;;5105405;27;43382;-80
2023/10/11 04:06:19;;;;;;;;;;;22.60;72.20;;;;;;5105570;27;43083;-78
2023/10/11 04:08:55;;;;;;;;;;;22.50;74.80;;;;;;5105390;27;42812;-77
2023/10/11 04:11:37;;;;;;;;;;;22.40;74.60;;;;;;5105108;27;42950;-79
2023/10/11 04:14:03;;;;;;;;;;;22.50;74.60;;;;;;5104505;27;43605;-79
2023/10/11 04:16:29;;;;;;;;;;;22.50;74.10;;;;;;5105645;27;43053;-79
2023/10/11 04:18:54;;;;;;;;;;;22.50;74.10;;;;;;5104892;27;42953;-79
2023/10/11 04:23:45;;;;;;;;;;;22.30;74.40;;;;;;5104360;27;43129;-78
2023/10/11 04:26:33;;;;;;;;;;;22.50;74.10;;;;;;5104420;27;43427;-80
2023/10/11 04:29:18;;;;;;;;;;;22.30;74.70;;;;;;5102825;27;43802;-79
2023/10/11 04:32:09;;;;;;;;;;;22.40;74.00;;;;;;5087790;27;43044;-79
2023/10/11 04:34:38;;;;;;;;;;;22.30;74.90;;;;;;5104475;27;43036;-79
2023/10/11 04:37:07;;;;;;;;;;;22.30;74.40;;;;;;5101492;27;43105;-79
2023/10/11 04:39:49;;;;;;;;;;;22.40;74.80;;;;;;5100146;27;43598;-79
2023/10/11 04:42:16;;;;;;;;;;;22.40;74.80;;;;;;5104263;27;43018;-80
2023/10/11 04:44:42;;;;;;;;;;;22.50;74.20;;;;;;5101319;27;44052;-79
2023/10/11 04:47:11;;;;;;;;;;;22.50;74.30;;;;;;5098486;27;43112;-79
2023/10/11 04:49:36;;;;;;;;;;;23.10;72.60;;;;;;5083853;28;43561;-79
2023/10/11 04:52:13;;;;;;;;;;;22.80;74.40;;;;;;5092893;27;42962;-79
2023/10/11 04:54:53;;;;;;;;;;;22.50;73.20;;;;;;5101324;27;44786;-80
2023/10/11 04:57:20;;;;;;;;;;;22.50;74.00;;;;;;5102828;27;43021;-79
2023/10/11 04:59:48;;;;;;;;;;;22.40;74.10;;;;;;5099631;27;43955;-80
2023/10/11 05:02:58;;;;;;;;;;;22.50;74.10;;;;;;5101724;27;43047;-79
2023/10/11 05:05:10;;;;;;;;;;;22.50;72.10;;;;;;5097861;27;43333;-79
2023/10/11 05:07:42;;;;;;;;;;;22.50;74.00;;;;;;5111279;27;43015;-79
2023/10/11 05:12:58;;;;;;;;;;;22.40;74.00;;;;;;5101819;27;43200;-77
2023/10/11 05:15:29;;;;;;;;;;;22.30;74.00;;;;;;5094361;27;42936;-80
2023/10/11 05:18:06;;;;;;;;;;;22.20;73.80;;;;;;5101221;27;43101;-80
2023/10/11 05:23:11;;;;;;;;;;;22.10;73.30;;;;;;5104764;27;43090;-81
2023/10/11 05:25:45;;;;;;;;;;;22.00;74.50;;;;;;5102320;27;42933;-80
2023/10/11 05:31:44;;;;;;;;;;;22.10;72.50;;;;;;5104349;27;43038;-81
2023/10/11 05:36:36;;;;;;;;;;;22.20;72.80;;;;;;5104484;27;43188;-80
2023/10/11 05:52:43;;;;;;;;;;;22.20;72.80;;;;;;5106772;27;43428;-80
2023/10/11 05:55:09;;;;;;;;;;;22.60;75.00;;;;;;5106510;27;42936;-81
2023/10/11 05:57:34;;;;;;;;;;;22.10;74.70;;;;;;5107605;27;42817;-80
2023/10/11 06:00:09;;;;;;;;;;;22.10;74.00;;;;;;5108083;27;43073;-80
2023/10/11 06:02:38;;;;;;;;;;;22.10;74.50;;;;;;5107468;27;42933;-80
2023/10/11 06:05:04;;;;;;;;;;;22.00;75.30;;;;;;5106603;27;43000;-81
2023/10/11 06:07:37;;;;;;;;;;;22.10;74.30;;;;;;5107327;27;42945;-80
2023/10/11 06:10:07;;;;;;;;;;;22.00;75.50;;;;;;5107657;27;43058;-81
2023/10/11 06:12:33;;;;;;;;;;;22.20;74.50;;;;;;5108257;27;44039;-81
2023/10/11 06:15:03;;;;;;;;;;;22.10;75.10;;;;;;5108439;27;42883;-81
2023/10/11 06:17:41;;;;;;;;;;;22.10;75.20;;;;;;5107988;27;44497;-80
2023/10/11 06:21:01;;;;;;;;;;;22.00;73.40;;;;;;5108050;27;42961;-80
2023/10/11 06:23:03;;;;;;;;;;;22.40;74.90;;;;;;5104584;27;43079;-80
2023/10/11 06:28:32;;;;;;;;;;;22.10;73.50;;;;;;5061340;27;43965;-80
2023/10/11 06:31:00;;;;;;;;;;;22.30;73.50;;;;;;5107863;27;42889;-81
2023/10/11 06:33:27;;;;;;;;;;;22.20;72.90;;;;;;5107931;27;42952;-81
2023/10/11 06:35:53;;;;;;;;;;;22.10;74.80;;;;;;5107619;27;42954;-80
2023/10/11 06:38:21;;;;;;;;;;;22.30;74.90;;;;;;5107633;27;42949;-81
2023/10/11 06:40:49;;;;;;;;;;;22.40;75.30;;;;;;5107356;27;42910;-80
2023/10/11 06:43:15;;;;;;;;;;;22.30;74.80;;;;;;5106931;27;42975;-81
2023/10/11 06:45:41;;;;;;;;;;;22.30;74.70;;;;;;5107444;27;42836;-81
2023/10/11 06:48:07;;;;;;;;;;;22.60;75.10;;;;;;5107332;27;44261;-81
2023/10/11 06:50:36;;;;;;;;;;;22.40;75.10;;;;;;5107399;27;42841;-80
2023/10/11 06:53:08;;;;;;;;;;;22.60;72.60;;;;;;5106273;27;42829;-81
2023/10/11 06:55:35;;;;;;;;;;;22.70;72.50;;;;;;5107152;27;43071;-81
2023/10/11 06:58:09;;;;;;;;;;;22.60;74.60;;;;;;5106714;27;42884;-81
2023/10/11 07:00:38;;;;;;;;;;;22.50;74.40;;;;;;5107121;27;42979;-81
2023/10/11 07:03:09;;;;;;;;;;;22.70;74.30;;;;;;5106298;27;42819;-81
2023/10/11 07:05:47;;;;;;;;;;;22.70;73.90;;;;;;5107219;27;42932;-81
2023/10/11 07:08:20;;;;;;;;;;;22.90;74.40;;;;;;5088882;27;44360;-81
2023/10/11 07:13:43;;;;;;;;;;;22.70;71.90;;;;;;5106831;27;42947;-81
2023/10/11 07:16:10;;;;;;;;;;;22.60;73.10;;;;;;5106801;27;42905;-81
2023/10/11 07:18:43;;;;;;;;;;;22.80;74.00;;;;;;5106124;27;42941;-81
2023/10/11 07:21:09;;;;;;;;;;;22.90;74.00;;;;;;5106449;27;43169;-81
2023/10/11 07:23:35;;;;;;;;;;;23.00;74.80;;;;;;5106434;27;43254;-81
2023/10/11 07:26:23;;;;;;;;;;;22.90;74.70;;;;;;5106460;27;42915;-81
2023/10/11 07:28:56;;;;;;;;;;;23.10;74.00;;;;;;5106346;27;42829;-81
2023/10/11 07:31:31;;;;;;;;;;;23.00;74.50;;;;;;5106290;27;43020;-81
2023/10/11 07:34:08;;;;;;;;;;;23.10;74.50;;;;;;5106423;27;42916;-81
2023/10/11 07:36:38;;;;;;;;;;;22.90;72.40;;;;;;5087452;27;59635;-81
2023/10/11 07:39:14;;;;;;;;;;;23.00;75.00;;;;;;5106668;27;42884;-82
2023/10/11 07:41:43;;;;;;;;;;;23.20;75.20;;;;;;5116089;27;42974;-81
2023/10/11 07:44:10;;;;;;;;;;;22.90;72.60;;;;;;5118878;27;43699;-82
2023/10/11 07:46:39;;;;;;;;;;;23.00;75.10;;;;;;5117847;27;42835;-81
2023/10/11 07:49:05;;;;;;;;;;;23.10;73.90;;;;;;5107324;27;42840;-81
2023/10/11 07:51:34;;;;;;;;;;;23.10;74.60;;;;;;5087966;27;43155;-81
2023/10/11 07:54:06;;;;;;;;;;;23.10;75.20;;;;;;5106806;27;43611;-81
2023/10/11 07:56:38;;;;;;;;;;;23.10;74.60;;;;;;5087720;27;42989;-81
2023/10/11 07:59:09;;;;;;;;;;;23.20;73.20;;;;;;5106604;27;43460;-81
2023/10/11 08:01:44;;;;;;;;;;;23.30;74.90;;;;;;5106463;27;42884;-81
2023/10/11 08:04:17;;;;;;;;;;;23.10;73.40;;;;;;5106072;27;44424;-81
2023/10/11 08:06:43;;;;;;;;;;;23.00;76.10;;;;;;5106205;27;42767;-81
2023/10/11 08:09:09;;;;;;;;;;;23.00;76.00;;;;;;5106506;27;42842;-81
2023/10/11 08:11:44;;;;;;;;;;;23.00;76.10;;;;;;5106750;27;42887;-81
2023/10/11 08:14:13;;;;;;;;;;;23.00;75.50;;;;;;5106382;27;43850;-81
2023/10/11 08:16:41;;;;;;;;;;;23.20;76.10;;;;;;5105977;27;42995;-81
2023/10/11 08:19:06;;;;;;;;;;;22.70;75.80;;;;;;5105273;27;42831;-81
2023/10/11 08:21:32;;;;;;;;;;;23.10;77.00;;;;;;5106684;27;42971;-81
2023/10/11 08:23:57;;;;;;;;;;;23.00;76.50;;;;;;5105621;27;43865;-81
2023/10/11 08:26:24;;;;;;;;;;;23.20;76.30;;;;;;5087237;27;43048;-81
2023/10/11 08:28:51;;;;;;;;;;;23.10;76.30;;;;;;5106230;27;43503;-81
2023/10/11 08:31:35;;;;;;;;;;;23.20;76.70;;;;;;5106060;27;42943;-81
2023/10/11 08:34:03;;;;;;;;;;;23.10;77.20;;;;;;5106089;27;43324;-81
2023/10/11 08:36:29;;;;;;;;;;;23.00;76.40;;;;;;5105892;27;43068;-81
2023/10/11 08:39:02;;;;;;;;;;;23.10;77.00;;;;;;5105904;27;42894;-81
2023/10/11 08:41:30;;;;;;;;;;;23.00;74.30;;;;;;5087322;27;43033;-81
2023/10/11 08:43:59;;;;;;;;;;;23.20;76.20;;;;;;5105423;27;44710;-81
2023/10/11 08:46:28;;;;;;;;;;;23.20;76.50;;;;;;5106001;27;42909;-81
2023/10/11 08:48:54;;;;;;;;;;;23.10;77.10;;;;;;5105915;27;42841;-81
2023/10/11 08:51:22;;;;;;;;;;;23.30;76.70;;;;;;5105660;27;42956;-81
2023/10/11 08:53:54;;;;;;;;;;;23.20;75.30;;;;;;5105100;27;44376;-81
2023/10/11 08:56:22;;;;;;;;;;;23.40;77.60;;;;;;5105295;27;42917;-81
2023/10/11 08:58:51;;;;;;;;;;;23.20;77.50;;;;;;5104838;27;43745;-81
2023/10/11 09:01:17;;;;;;;;;;;23.10;77.20;;;;;;5105484;27;42862;-81
2023/10/11 09:03:43;;;;;;;;;;;23.30;77.50;;;;;;5104786;27;43430;-81
2023/10/11 09:06:22;;;;;;;;;;;23.20;77.00;;;;;;5104980;27;42958;-81
2023/10/11 09:08:47;;;;;;;;;;;23.40;75.20;;;;;;5104515;27;43763;-81
2023/10/11 09:11:34;;;;;;;;;;;23.30;77.40;;;;;;5105163;27;42934;-82
2023/10/11 09:14:09;;;;;;;;;;;23.20;74.90;;;;;;5105077;27;43426;-81
2023/10/11 09:16:34;;;;;;;;;;;23.30;75.20;;;;;;5107147;27;43228;-81
2023/10/11 09:19:05;;;;;;;;;;;23.30;77.30;;;;;;5108406;27;43485;-81
2023/10/11 09:21:35;;;;;;;;;;;23.30;77.70;;;;;;5108525;27;43532;-81
2023/10/11 09:24:24;;;;;;;;;;;23.40;77.50;;;;;;5108580;27;42936;-81
2023/10/11 09:27:08;;;;;;;;;;;23.20;75.40;;;;;;5099698;27;43005;-81
2023/10/11 09:29:34;;;;;;;;;;;23.50;77.90;;;;;;5108012;27;42914;-81
2023/10/11 09:31:59;;;;;;;;;;;23.40;77.20;;;;;;5089926;27;42941;-81
2023/10/11 09:34:29;;;;;;;;;;;23.40;77.90;;;;;;5108431;27;42954;-81
2023/10/11 09:36:56;;;;;;;;;;;23.20;75.30;;;;;;5108896;27;42923;-81
2023/10/11 09:39:22;;;;;;;;;;;23.40;77.30;;;;;;5108148;27;43560;-81
2023/10/11 09:41:52;;;;;;;;;;;23.50;77.50;;;;;;5108646;27;43028;-81
2023/10/11 09:44:21;;;;;;;;;;;23.40;77.90;;;;;;5108608;27;42949;-81
2023/10/11 09:46:48;;;;;;;;;;;23.40;77.80;;;;;;5108601;27;43016;-81
2023/10/11 09:49:13;;;;;;;;;;;23.40;78.00;;;;;;5108518;27;42936;-81
2023/10/11 09:51:42;;;;;;;;;;;23.50;77.60;;;;;;5108599;27;42915;-81
2023/10/11 09:54:14;;;;;;;;;;;23.40;76.20;;;;;;5108303;27;43353;-81
2023/10/11 09:56:40;;;;;;;;;;;23.50;78.30;;;;;;5108252;27;42784;-81
2023/10/11 09:59:24;;;;;;;;;;;23.40;77.60;;;;;;5106039;27;42982;-81
2023/10/11 10:02:25;;;;;;;;;;;23.40;75.90;;;;;;5108793;27;42743;-81
2023/10/11 10:04:51;;;;;;;;;;;23.30;75.70;;;;;;5044890;28;43908;-81
2023/10/11 10:07:26;;;;;;;;;;;23.40;77.90;;;;;;5044509;28;43023;-81
2023/10/11 10:09:59;;;;;;;;;;;23.30;78.30;;;;;;5027203;28;44846;-81
2023/10/11 10:12:32;;;;;;;;;;;23.50;76.10;;;;;;5044464;28;43063;-81
2023/10/11 10:15:02;;;;;;;;;;;23.40;76.10;;;;;;5044679;28;43704;-81
2023/10/11 10:17:28;;;;;;;;;;;23.50;76.20;;;;;;5044314;28;43027;-81
2023/10/11 10:20:00;;;;;;;;;;;23.50;78.30;;;;;;5043567;28;43625;-81
2023/10/11 10:22:32;;;;;;;;;;;23.40;77.80;;;;;;5054353;28;42930;-81
2023/10/11 10:25:32;;;;;;;;;;;23.50;78.30;;;;;;5051526;28;43211;-80
2023/10/11 10:27:58;;;;;;;;;;;23.40;75.70;;;;;;4991275;28;43046;-81
2023/10/11 10:30:27;;;;;;;;;;;23.50;78.30;;;;;;4985501;28;42876;-81
2023/10/11 10:33:11;;;;;;;;;;;23.80;78.10;;;;;;4984881;28;42982;-81
2023/10/11 10:35:37;;;;;;;;;;;23.60;76.10;;;;;;4985128;28;43875;-81
2023/10/11 10:38:09;;;;;;;;;;;23.40;78.40;;;;;;4995110;28;42989;-81
2023/10/11 10:40:37;;;;;;;;;;;23.40;78.30;;;;;;5043962;28;43622;-80
2023/10/11 10:43:22;;;;;;;;;;;23.60;78.60;;;;;;5044012;28;43018;-81
2023/10/11 10:45:48;;;;;;;;;;;23.50;76.30;;;;;;5026422;28;44135;-80
2023/10/11 10:48:23;;;;;;;;;;;23.70;78.60;;;;;;5043410;28;42959;-81
2023/10/11 10:50:50;;;;;;;;;;;23.40;76.10;;;;;;5043701;28;44719;-80
2023/10/11 10:53:16;;;;;;;;;;;23.50;77.90;;;;;;5085234;22;43192;-80
2023/10/11 10:55:43;;;;;;;;;;;23.70;78.60;;;;;;5068372;28;42973;-80
2023/10/11 10:58:19;;;;;;;;;;;23.50;76.30;;;;;;5087202;28;42958;-80
2023/10/11 11:00:46;;;;;;;;;;;23.70;76.20;;;;;;5086880;28;43449;-81
2023/10/11 11:03:24;;;;;;;;;;;23.70;78.50;;;;;;5086772;28;42827;-81
2023/10/11 11:05:56;;;;;;;;;;;23.70;76.20;;;;;;5086964;28;43328;-80
2023/10/11 11:11:18;;;;;;;;;;;23.60;77.80;;;;;;5781805;22;42896;-80
2023/10/11 11:13:44;;;;;;;;;;;23.60;76.10;;;;;;5086185;28;42748;-80
2023/10/11 11:16:20;;;;;;;;;;;23.60;78.30;;;;;;5086221;28;42963;-80
2023/10/11 11:18:47;;;;;;;;;;;23.70;76.00;;;;;;5086437;28;42909;-80
2023/10/11 11:21:25;;;;;;;;;;;23.80;77.80;;;;;;5086267;28;43042;-79
2023/10/11 11:23:51;;;;;;;;;;;23.20;75.90;;;;;;5087218;28;43043;-80
2023/10/11 11:26:21;;;;;;;;;;;23.60;78.50;;;;;;5086439;28;42847;-80
2023/10/11 11:28:47;;;;;;;;;;;23.60;78.30;;;;;;5067742;28;43069;-80
2023/10/11 11:31:30;;;;;;;;;;;23.90;78.40;;;;;;5086523;28;42975;-81
2023/10/11 11:34:11;;;;;;;;;;;23.60;77.40;;;;;;5069424;28;42950;-80
2023/10/11 11:36:40;;;;;;;;;;;23.90;75.90;;;;;;5065727;28;43861;-80
2023/10/11 11:41:53;;;;;;;;;;;23.80;76.70;;;;;;5066150;28;43253;-80
2023/10/11 11:44:23;;;;;;;;;;;23.50;76.20;;;;;;5065329;28;42987;-80
2023/10/11 11:46:52;;;;;;;;;;;23.70;78.10;;;;;;5065788;28;43002;-80
2023/10/11 11:49:20;;;;;;;;;;;23.70;75.60;;;;;;5065950;28;43001;-80
2023/10/11 11:51:47;;;;;;;;;;;23.60;77.90;;;;;;5065222;28;43293;-80
2023/10/11 11:54:16;;;;;;;;;;;23.80;78.00;;;;;;5065386;28;42962;-80
2023/10/11 11:56:43;;;;;;;;;;;23.60;77.40;;;;;;5065701;28;43949;-80
2023/10/11 11:59:17;;;;;;;;;;;23.60;77.70;;;;;;5065544;28;42908;-81
2023/10/11 12:01:49;;;;;;;;;;;23.60;77.10;;;;;;5065193;28;44710;-80
2023/10/11 12:04:29;;;;;;;;;;;23.70;77.70;;;;;;5065491;28;43025;-80
2023/10/11 12:07:01;;;;;;;;;;;23.80;75.30;;;;;;5065294;28;42999;-80
2023/10/11 12:09:46;;;;;;;;;;;23.90;75.30;;;;;;5065267;28;43077;-80
2023/10/11 12:12:12;;;;;;;;;;;23.80;77.10;;;;;;5021972;28;43682;-80
2023/10/11 12:14:37;;;;;;;;;;;23.80;77.00;;;;;;5022540;28;43069;-80
2023/10/11 12:17:11;;;;;;;;;;;23.70;76.80;;;;;;5022948;28;43022;-80
2023/10/11 12:19:36;;;;;;;;;;;23.60;77.30;;;;;;5023235;28;43041;-81
2023/10/11 12:22:03;;;;;;;;;;;23.90;77.20;;;;;;5023107;28;43611;-80
2023/10/11 12:24:29;;;;;;;;;;;23.70;76.70;;;;;;5022987;28;43073;-80
2023/10/11 12:26:57;;;;;;;;;;;23.70;76.60;;;;;;5022430;28;44001;-80
2023/10/11 12:29:26;;;;;;;;;;;23.60;76.90;;;;;;5022751;28;42849;-80
2023/10/11 12:31:52;;;;;;;;;;;23.80;74.60;;;;;;5022258;28;43130;-80
2023/10/11 12:34:24;;;;;;;;;;;23.80;76.30;;;;;;5005435;28;42959;-80
2023/10/11 12:36:52;;;;;;;;;;;23.70;76.10;;;;;;5022327;28;43518;-80
2023/10/11 12:39:20;;;;;;;;;;;23.80;76.80;;;;;;5021749;28;43098;-80
2023/10/11 12:41:49;;;;;;;;;;;23.90;73.50;;;;;;5022412;28;43955;-80
2023/10/11 12:44:15;;;;;;;;;;;23.80;76.20;;;;;;5061780;28;43137;-80
2023/10/11 12:46:40;;;;;;;;;;;23.50;76.20;;;;;;5065539;28;42854;-80
2023/10/11 12:49:12;;;;;;;;;;;23.60;76.20;;;;;;5065028;28;42908;-80
2023/10/11 12:51:57;;;;;;;;;;;;;;;;;;;;;
2023/10/11 12:54:23;;;;;;;;;;;23.80;75.60;;;;;;5064983;28;68964;-80
2023/10/11 12:56:49;;;;;;;;;;;23.90;75.60;;;;;;5068190;28;42940;-80
2023/10/11 12:59:14;;;;;;;;;;;23.60;76.10;;;;;;5068387;28;43177;-80
2023/10/11 13:01:41;;;;;;;;;;;23.80;75.60;;;;;;5068221;28;43724;-80
2023/10/11 13:04:17;;;;;;;;;;;23.80;75.90;;;;;;5068583;28;42967;-80
2023/10/11 13:06:49;;;;;;;;;;;23.70;75.60;;;;;;5074830;28;42983;-80
2023/10/11 13:09:15;;;;;;;;;;;23.50;75.50;;;;;;5076328;28;42918;-80
2023/10/11 13:11:46;;;;;;;;;;;23.80;75.70;;;;;;5076814;28;42920;-82
2023/10/11 13:14:18;;;;;;;;;;;23.70;75.70;;;;;;5070618;28;42900;-80
2023/10/11 13:17:15;;;;;;;;;;;23.60;73.00;;;;;;5068597;28;42951;-81
2023/10/11 13:19:43;;;;;;;;;;;23.70;72.50;;;;;;4986460;28;43138;-81
2023/10/11 13:22:09;;;;;;;;;;;23.90;75.30;;;;;;4985886;28;43713;-80
2023/10/11 13:24:35;;;;;;;;;;;23.70;74.70;;;;;;4985891;28;42961;-80
2023/10/11 13:27:03;;;;;;;;;;;23.80;74.60;;;;;;4969211;28;43515;-80
2023/10/11 13:29:29;;;;;;;;;;;23.80;74.50;;;;;;4986057;28;42941;-82
2023/10/11 13:31:55;;;;;;;;;;;23.80;74.70;;;;;;4985426;28;43552;-80
2023/10/11 13:34:22;;;;;;;;;;;23.70;74.90;;;;;;4985316;28;42957;-80
2023/10/11 13:36:47;;;;;;;;;;;24.00;75.10;;;;;;4985232;28;44251;-80
2023/10/11 13:39:29;;;;;;;;;;;23.70;74.40;;;;;;4986222;28;42996;-82
2023/10/11 13:41:55;;;;;;;;;;;23.70;74.50;;;;;;4985219;28;43543;-81
2023/10/11 13:44:54;;;;;;;;;;;23.80;74.60;;;;;;4985601;28;43010;-81
2023/10/11 13:47:21;;;;;;;;;;;23.70;74.40;;;;;;4985516;28;43101;-80
2023/10/11 13:49:49;;;;;;;;;;;23.60;74.20;;;;;;4985284;28;42938;-82
2023/10/11 13:52:14;;;;;;;;;;;23.70;74.00;;;;;;4985744;28;43160;-79
2023/10/11 13:54:42;;;;;;;;;;;23.90;74.20;;;;;;4985512;28;42953;-81
2023/10/11 13:57:18;;;;;;;;;;;23.90;72.80;;;;;;5050648;28;42984;-80
2023/10/11 13:59:47;;;;;;;;;;;24.10;74.30;;;;;;5067038;28;43493;-80
2023/10/11 14:05:32;;;;;;;;;;;;;;;;;;;;;
2023/10/11 14:07:57;;;;;;;;;;;23.90;74.20;;;;;;5065873;28;72789;-80
2023/10/11 14:10:27;;;;;;;;;;;23.80;74.10;;;;;;5066915;28;43000;-81
2023/10/11 14:12:56;;;;;;;;;;;23.80;71.80;;;;;;5048943;28;43745;-82
2023/10/11 14:15:24;;;;;;;;;;;23.90;74.10;;;;;;5066982;28;43018;-80
2023/10/11 14:47:24;;;;;;;;;;;23.80;73.40;;;;;;5240384;22;42981;-79
2023/10/11 14:49:50;;;;;;;;;;;23.90;73.60;;;;;;5107867;27;42887;-80
2023/10/11 14:52:18;;;;;;;;;;;23.90;73.70;;;;;;5107805;27;42868;-80
2023/10/11 14:54:45;;;;;;;;;;;23.90;73.70;;;;;;5107339;27;42825;-81
2023/10/11 14:57:11;;;;;;;;;;;24.10;74.60;;;;;;5107178;27;42904;-80
2023/10/11 14:59:36;;;;;;;;;;;23.90;74.00;;;;;;5107227;27;43522;-79
2023/10/11 15:02:02;;;;;;;;;;;24.00;75.10;;;;;;5107352;27;42783;-81
2023/10/11 15:04:28;;;;;;;;;;;23.70;74.50;;;;;;5107355;27;42890;-82
2023/10/11 15:06:53;;;;;;;;;;;23.90;74.00;;;;;;5107589;27;42768;-81
2023/10/11 15:09:19;;;;;;;;;;;23.90;73.80;;;;;;5107279;27;42855;-81
2023/10/11 15:11:46;;;;;;;;;;;23.90;74.30;;;;;;5107095;27;42877;-81
2023/10/11 15:14:11;;;;;;;;;;;24.00;73.70;;;;;;5105023;27;43131;-80
2023/10/11 15:16:37;;;;;;;;;;;23.50;73.60;;;;;;5107239;27;43000;-82
2023/10/11 15:19:03;;;;;;;;;;;23.90;74.00;;;;;;5107109;27;43052;-81
2023/10/11 15:21:28;;;;;;;;;;;24.00;74.30;;;;;;5106897;27;43526;-81
2023/10/11 15:23:57;;;;;;;;;;;23.90;74.10;;;;;;5107128;27;43612;-81
2023/10/11 15:26:23;;;;;;;;;;;24.00;72.00;;;;;;5107178;27;42982;-81
2023/10/11 15:28:49;;;;;;;;;;;24.00;73.70;;;;;;5106829;27;42991;-81
2023/10/11 15:31:16;;;;;;;;;;;24.10;74.50;;;;;;5106180;27;43075;-80
2023/10/11 15:33:42;;;;;;;;;;;24.10;73.90;;;;;;5106722;27;42864;-80
2023/10/11 15:36:08;;;;;;;;;;;24.10;73.70;;;;;;5107165;27;42868;-81
2023/10/11 15:38:34;;;;;;;;;;;24.00;73.90;;;;;;5106966;27;42949;-81
2023/10/11 15:41:00;;;;;;;;;;;23.90;74.40;;;;;;5106735;27;42980;-81
2023/10/11 15:43:26;;;;;;;;;;;24.00;74.50;;;;;;5106578;27;43800;-81
2023/10/11 15:45:52;;;;;;;;;;;24.10;73.80;;;;;;5106965;27;42880;-82
2023/10/11 15:48:18;;;;;;;;;;;24.10;73.90;;;;;;5101482;27;42972;-79